Time;durP1;ratioP1;P1;durP2;ratioP2;P2;SDS_P1;SDS_P2;PMS_P1;PMS_P2;Temp;Humidity;BMP_temperature;BMP_pressure;BME280_temperature;BME280_humidity;BME280_pressure;Samples;Min_cycle;Max_cycle;Signal;HPM_P1;HPM_P2
2021/12/01 00:00:53;;;;;;;9.63;4.85;;;1.50;99.90;;;;;;5049736;28;20021;-72
2021/12/01 00:03:19;;;;;;;9.73;6.00;;;1.60;99.90;;;;;;5050121;28;20033;-71
2021/12/01 00:05:45;;;;;;;10.60;5.50;;;1.60;99.90;;;;;;5049036;28;20078;-70
2021/12/01 00:08:11;;;;;;;9.53;4.43;;;1.60;99.90;;;;;;5048284;28;20351;-72
2021/12/01 00:10:38;;;;;;;10.02;5.38;;;1.60;99.90;;;;;;5048828;28;20245;-70
2021/12/01 00:13:06;;;;;;;8.90;5.13;;;1.60;99.90;;;;;;5049880;28;20056;-71
2021/12/01 00:15:32;;;;;;;8.63;4.88;;;1.60;99.90;;;;;;5061313;28;20468;-74
2021/12/01 00:17:58;;;;;;;7.38;4.68;;;1.60;99.90;;;;;;5069862;28;20523;-71
2021/12/01 00:20:24;;;;;;;8.67;4.63;;;1.60;99.90;;;;;;5068870;28;20112;-71
2021/12/01 00:22:50;;;;;;;8.43;4.97;;;1.60;99.90;;;;;;5065105;28;20087;-72
2021/12/01 00:25:19;;;;;;;9.73;4.65;;;1.60;99.90;;;;;;5048973;28;20021;-71
2021/12/01 00:27:49;;;;;;;7.72;4.80;;;1.70;99.90;;;;;;5047707;28;20056;-71
2021/12/01 00:30:16;;;;;;;9.77;5.53;;;1.70;99.90;;;;;;5048930;28;20229;-71
2021/12/01 00:32:42;;;;;;;9.18;4.97;;;1.70;99.90;;;;;;5049531;28;20112;-71
2021/12/01 00:35:09;;;;;;;8.55;5.15;;;1.70;99.90;;;;;;5053726;28;20033;-72
2021/12/01 00:37:36;;;;;;;8.80;5.20;;;1.60;99.90;;;;;;5049345;28;20389;-71
2021/12/01 00:40:02;;;;;;;;;;;1.50;99.90;;;;;;5056024;28;20159;-72
2021/12/01 00:42:28;;;;;;;9.07;5.20;;;1.40;99.90;;;;;;5053385;28;20004;-72
2021/12/01 00:45:00;;;;;;;11.53;5.50;;;1.30;99.90;;;;;;5051502;28;20108;-72
2021/12/01 00:47:43;;;;;;;13.55;6.60;;;1.30;99.90;;;;;;5052741;28;20043;-71
2021/12/01 00:50:18;;;;;;;12.70;5.32;;;1.20;99.90;;;;;;5060612;28;20021;-71
2021/12/01 00:52:44;;;;;;;11.82;6.25;;;1.20;99.90;;;;;;5073036;28;20033;-72
2021/12/01 00:55:10;;;;;;;9.23;5.50;;;1.20;99.90;;;;;;5062753;28;20025;-72
2021/12/01 00:57:36;;;;;;;12.65;6.07;;;1.20;99.90;;;;;;5052225;28;20098;-71
2021/12/01 01:00:07;;;;;;;10.57;5.70;;;1.20;99.90;;;;;;5067662;28;20043;-72
2021/12/01 01:02:33;;;;;;;11.82;6.47;;;1.10;99.90;;;;;;5052504;28;20116;-70
2021/12/01 01:04:59;;;;;;;11.50;6.25;;;1.10;99.90;;;;;;5059073;28;20017;-72
2021/12/01 01:07:25;;;;;;;12.13;6.53;;;1.10;99.90;;;;;;5088211;28;20094;-72
2021/12/01 01:09:51;;;;;;;12.98;6.30;;;1.00;99.90;;;;;;5072675;28;20107;-71
2021/12/01 01:17:52;;;;;;;11.82;5.78;;;1.00;99.90;;;;;;5052973;28;20106;-72
2021/12/01 01:20:18;;;;;;;11.35;6.10;;;1.00;99.90;;;;;;5067716;28;20025;-71
2021/12/01 01:22:44;;;;;;;11.93;6.93;;;1.00;99.90;;;;;;5071141;28;20039;-72
2021/12/01 01:25:10;;;;;;;14.10;6.27;;;0.90;99.90;;;;;;5077160;28;20036;-73
2021/12/01 01:27:36;;;;;;;10.38;5.97;;;0.90;99.90;;;;;;5072233;28;20116;-72
2021/12/01 01:30:03;;;;;;;13.17;6.67;;;0.90;99.90;;;;;;5082419;28;20463;-72
2021/12/01 01:32:31;;;;;;;11.45;7.25;;;0.90;99.90;;;;;;5072034;28;20277;-72
2021/12/01 01:34:57;;;;;;;14.55;7.05;;;0.80;99.90;;;;;;5063841;28;20538;-72
2021/12/01 01:37:23;;;;;;;11.93;7.03;;;0.80;99.90;;;;;;5050668;28;20037;-71
2021/12/01 01:39:48;;;;;;;13.30;6.77;;;0.80;99.90;;;;;;5050603;28;20075;-71
2021/12/01 01:42:14;;;;;;;13.07;6.80;;;0.70;99.90;;;;;;5067126;28;20116;-73
2021/12/01 01:44:40;;;;;;;13.33;6.67;;;0.60;99.90;;;;;;5050484;28;20017;-72
2021/12/01 01:47:05;;;;;;;11.63;6.23;;;0.60;99.90;;;;;;5050354;28;20064;-73
2021/12/01 01:49:51;;;;;;;12.20;6.60;;;0.50;99.90;;;;;;5051553;28;20373;-72
2021/12/01 01:52:17;;;;;;;12.48;6.78;;;0.50;99.90;;;;;;5051693;28;20036;-72
2021/12/01 01:54:43;;;;;;;15.20;6.70;;;0.40;99.90;;;;;;5051516;28;20043;-72
2021/12/01 01:57:08;;;;;;;12.40;6.53;;;0.50;99.90;;;;;;5051650;28;20045;-73
2021/12/01 01:59:34;;;;;;;11.33;6.20;;;0.40;99.90;;;;;;5055169;28;20031;-73
2021/12/01 02:02:01;;;;;;;13.27;7.07;;;0.40;99.90;;;;;;5070294;28;20413;-72
2021/12/01 02:04:32;;;;;;;14.77;7.28;;;0.30;99.90;;;;;;5066357;28;20449;-72
2021/12/01 02:06:59;;;;;;;12.45;6.93;;;0.30;99.90;;;;;;5050046;28;20033;-73
2021/12/01 02:09:25;;;;;;;;;;;0.30;99.90;;;;;;5051769;28;20472;-72
2021/12/01 02:11:56;;;;;;;12.88;6.20;;;0.30;99.90;;;;;;5051522;28;19974;-74
2021/12/01 02:14:23;;;;;;;12.38;5.75;;;0.30;99.90;;;;;;5053855;28;20352;-72
2021/12/01 02:16:49;;;;;;;13.80;6.97;;;0.30;99.90;;;;;;5070919;28;20032;-73
2021/12/01 02:19:15;;;;;;;13.60;7.55;;;0.30;99.90;;;;;;5069641;28;20040;-75
2021/12/01 02:21:42;;;;;;;13.93;6.88;;;0.20;99.90;;;;;;5060931;28;20036;-72
2021/12/01 02:24:11;;;;;;;;;;;0.20;99.90;;;;;;5052259;28;20036;-72
2021/12/01 02:26:43;;;;;;;12.43;6.57;;;0.20;99.90;;;;;;5070883;28;19916;-73
2021/12/01 02:29:12;;;;;;;12.10;6.05;;;0.20;99.90;;;;;;5070491;28;20432;-73
2021/12/01 02:31:38;;;;;;;13.68;6.47;;;0.20;99.90;;;;;;5069620;28;20097;-73
2021/12/01 02:34:09;;;;;;;11.48;6.40;;;0.20;99.90;;;;;;5068385;28;20082;-74
2021/12/01 02:36:36;;;;;;;13.15;6.63;;;0.30;99.90;;;;;;5048696;28;20125;-73
2021/12/01 02:39:06;;;;;;;13.27;7.22;;;0.30;99.90;;;;;;5051022;28;20043;-72
2021/12/01 02:41:32;;;;;;;14.77;6.65;;;0.30;99.90;;;;;;5049354;28;20515;-72
2021/12/01 02:44:00;;;;;;;12.23;6.60;;;0.40;99.90;;;;;;5050519;28;20030;-71
2021/12/01 02:46:27;;;;;;;10.43;6.28;;;0.40;99.90;;;;;;5050548;28;20053;-72
2021/12/01 02:48:53;;;;;;;13.75;7.15;;;0.40;99.90;;;;;;5050868;28;20503;-73
2021/12/01 02:51:23;;;;;;;12.07;6.82;;;0.40;99.90;;;;;;5050505;28;20049;-74
2021/12/01 02:53:49;;;;;;;11.02;6.75;;;0.40;99.90;;;;;;5050578;28;20535;-72
2021/12/01 02:56:17;;;;;;;14.15;6.28;;;0.40;99.90;;;;;;5067843;28;20024;-72
2021/12/01 02:58:44;;;;;;;9.93;5.75;;;0.40;99.90;;;;;;5070468;28;20029;-72
2021/12/01 03:01:17;;;;;;;11.15;6.13;;;0.40;99.90;;;;;;5067990;28;20025;-72
2021/12/01 03:03:43;;;;;;;11.50;6.28;;;0.50;99.90;;;;;;5070436;28;20013;-72
2021/12/01 03:06:11;;;;;;;10.50;6.15;;;0.50;99.90;;;;;;5051757;28;20033;-74
2021/12/01 03:08:39;;;;;;;12.90;5.65;;;0.50;99.90;;;;;;5050318;28;20031;-72
2021/12/01 03:11:05;;;;;;;10.32;5.85;;;0.60;99.90;;;;;;5065778;28;20491;-72
2021/12/01 03:13:31;;;;;;;11.05;5.60;;;0.60;99.90;;;;;;5070349;28;20032;-73
2021/12/01 03:15:58;;;;;;;10.57;5.82;;;0.60;99.90;;;;;;5052574;28;20037;-73
2021/12/01 03:18:24;;;;;;;;;;;0.60;99.90;;;;;;5049252;28;20029;-72
2021/12/01 03:20:51;;;;;;;11.32;6.00;;;0.60;99.90;;;;;;5052940;28;19908;-72
2021/12/01 03:23:18;;;;;;;10.32;6.25;;;0.60;99.90;;;;;;5070589;28;20024;-72
2021/12/01 03:25:44;;;;;;;10.80;6.43;;;0.60;99.90;;;;;;5054553;28;20033;-72
2021/12/01 03:28:11;;;;;;;9.43;5.78;;;0.70;99.90;;;;;;5050522;28;20040;-71
2021/12/01 03:30:38;;;;;;;10.57;6.30;;;0.70;99.90;;;;;;5049831;28;20029;-72
2021/12/01 03:33:09;;;;;;;10.43;6.13;;;0.80;99.90;;;;;;5050478;28;20056;-74
2021/12/01 03:35:37;;;;;;;11.15;6.03;;;0.80;99.90;;;;;;5061786;28;20578;-72
2021/12/01 03:38:04;;;;;;;11.48;6.82;;;0.90;99.90;;;;;;5070328;28;20028;-72
2021/12/01 03:40:30;;;;;;;10.90;6.72;;;0.90;99.90;;;;;;5070160;28;20537;-72
2021/12/01 03:42:56;;;;;;;11.60;6.30;;;0.90;99.90;;;;;;5068538;28;20063;-73
2021/12/01 03:45:21;;;;;;;9.88;6.40;;;0.90;99.90;;;;;;5057725;28;20064;-72
2021/12/01 03:47:48;;;;;;;10.95;6.50;;;0.90;99.90;;;;;;5049521;28;20033;-72
2021/12/01 03:50:14;;;;;;;13.38;6.90;;;0.90;99.90;;;;;;5049507;28;20025;-73
2021/12/01 03:52:40;;;;;;;10.95;6.30;;;0.90;99.90;;;;;;5048427;28;20053;-71
2021/12/01 03:55:08;;;;;;;10.15;6.22;;;1.00;99.90;;;;;;5058411;28;20024;-71
2021/12/01 03:57:34;;;;;;;14.32;6.80;;;1.00;99.90;;;;;;5067583;28;20041;-71
2021/12/01 04:00:00;;;;;;;12.20;7.53;;;1.00;99.90;;;;;;5069353;28;20032;-73
2021/12/01 04:02:27;;;;;;;10.18;6.70;;;1.00;99.90;;;;;;5069851;28;20064;-72
2021/12/01 04:04:52;;;;;;;13.10;6.85;;;1.00;99.90;;;;;;5071713;28;20029;-72
2021/12/01 04:07:19;;;;;;;13.02;6.20;;;1.00;99.90;;;;;;5067480;28;20029;-74
2021/12/01 04:09:45;;;;;;;12.85;6.00;;;1.00;99.90;;;;;;5069247;28;20556;-71
2021/12/01 04:12:11;;;;;;;10.82;5.95;;;1.00;99.90;;;;;;5069660;28;20045;-71
2021/12/01 04:14:37;;;;;;;9.30;5.78;;;0.90;99.90;;;;;;5071911;28;20036;-73
2021/12/01 04:17:04;;;;;;;10.85;6.57;;;0.90;99.90;;;;;;5071253;28;20064;-73
2021/12/01 04:19:30;;;;;;;11.90;6.97;;;1.00;99.90;;;;;;5072642;28;20125;-73
2021/12/01 04:21:56;;;;;;;11.73;7.47;;;0.90;99.90;;;;;;5073638;28;20060;-72
2021/12/01 04:24:22;;;;;;;11.98;7.25;;;0.90;99.90;;;;;;5072722;28;20039;-72
2021/12/01 04:26:48;;;;;;;12.23;7.00;;;0.90;99.90;;;;;;5071360;28;20041;-73
2021/12/01 04:29:14;;;;;;;12.53;7.33;;;0.90;99.90;;;;;;5069662;28;20476;-73
2021/12/01 04:31:40;;;;;;;12.83;7.73;;;0.90;99.90;;;;;;5068605;28;20278;-73
2021/12/01 04:34:07;;;;;;;11.35;7.05;;;0.90;99.90;;;;;;5053015;28;20025;-73
2021/12/01 04:36:35;;;;;;;;;;;0.80;99.90;;;;;;5053109;28;20041;-72
2021/12/01 04:39:04;;;;;;;12.50;7.07;;;0.80;99.90;;;;;;5052939;28;19904;-74
2021/12/01 04:41:36;;;;;;;15.18;8.27;;;0.80;99.90;;;;;;5052994;28;20439;-73
2021/12/01 04:44:08;;;;;;;12.40;8.07;;;0.80;99.90;;;;;;5053098;28;20110;-72
2021/12/01 04:46:40;;;;;;;12.23;7.20;;;0.80;99.90;;;;;;5072547;28;20488;-72
2021/12/01 04:49:07;;;;;;;15.57;8.23;;;0.70;99.90;;;;;;5072427;28;20051;-74
2021/12/01 04:51:33;;;;;;;14.30;8.15;;;0.70;99.90;;;;;;5072968;28;20396;-73
2021/12/01 04:53:59;;;;;;;14.10;8.48;;;0.70;99.90;;;;;;5072925;28;20035;-74
2021/12/01 04:56:25;;;;;;;15.70;8.35;;;0.80;99.90;;;;;;5052039;28;20091;-74
2021/12/01 04:58:51;;;;;;;15.45;8.65;;;0.80;99.90;;;;;;5052407;28;20071;-73
2021/12/01 05:01:17;;;;;;;13.32;8.07;;;0.80;99.90;;;;;;5069422;28;20472;-73
2021/12/01 05:03:43;;;;;;;12.93;7.35;;;0.90;99.90;;;;;;5072727;28;20125;-72
2021/12/01 05:06:12;;;;;;;12.57;7.35;;;0.80;99.90;;;;;;5054298;28;20542;-73
2021/12/01 05:08:38;;;;;;;17.15;8.57;;;0.80;99.90;;;;;;5050764;28;20025;-72
2021/12/01 05:11:04;;;;;;;13.85;8.20;;;0.80;99.90;;;;;;5067751;28;20025;-73
2021/12/01 05:13:30;;;;;;;12.63;8.43;;;0.80;99.90;;;;;;5088151;28;20036;-73
2021/12/01 05:15:56;;;;;;;12.93;8.38;;;0.80;99.90;;;;;;5055771;28;20476;-74
2021/12/01 05:18:22;;;;;;;14.52;8.05;;;0.80;99.90;;;;;;5052182;28;20029;-73
2021/12/01 05:20:48;;;;;;;16.70;9.30;;;0.90;99.90;;;;;;5066238;28;20491;-75
2021/12/01 05:23:15;;;;;;;14.98;7.60;;;0.80;99.90;;;;;;5071225;28;20036;-74
2021/12/01 05:25:45;;;;;;;14.07;8.55;;;0.90;99.90;;;;;;5080613;28;20036;-73
2021/12/01 05:28:11;;;;;;;13.43;8.10;;;0.90;99.90;;;;;;5071028;28;20024;-73
2021/12/01 05:30:37;;;;;;;13.35;8.50;;;0.90;99.90;;;;;;5066701;28;20036;-74
2021/12/01 05:33:06;;;;;;;15.10;8.38;;;0.90;99.90;;;;;;5052563;28;20110;-73
2021/12/01 05:35:32;;;;;;;15.57;8.45;;;0.90;99.90;;;;;;5063927;28;20027;-73
2021/12/01 05:37:58;;;;;;;;;;;1.00;99.90;;;;;;5071080;28;20032;-73
2021/12/01 05:40:24;;;;;;;17.25;7.80;;;1.00;99.90;;;;;;5059523;28;20003;-71
2021/12/01 05:42:50;;;;;;;14.93;8.55;;;1.10;99.90;;;;;;5051961;28;20408;-73
2021/12/01 05:45:16;;;;;;;15.30;8.20;;;1.10;99.90;;;;;;5060616;28;20120;-75
2021/12/01 05:47:41;;;;;;;16.60;9.23;;;1.10;99.90;;;;;;5072109;28;20059;-73
2021/12/01 05:50:08;;;;;;;14.73;8.57;;;1.10;99.90;;;;;;5061829;28;20029;-74
2021/12/01 05:52:34;;;;;;;13.27;8.68;;;1.10;99.90;;;;;;5050543;28;20037;-73
2021/12/01 05:54:59;;;;;;;16.00;8.77;;;1.20;99.90;;;;;;5058419;28;20488;-74
2021/12/01 05:57:25;;;;;;;14.83;9.03;;;1.20;99.90;;;;;;5071011;28;20537;-74
2021/12/01 05:59:51;;;;;;;14.67;8.57;;;1.30;99.90;;;;;;5063969;28;20108;-75
2021/12/01 06:02:16;;;;;;;13.23;8.43;;;1.30;99.90;;;;;;5051750;28;20025;-74
2021/12/01 06:04:43;;;;;;;15.60;8.60;;;1.30;99.90;;;;;;5055707;28;20440;-74
2021/12/01 06:07:09;;;;;;;12.52;7.90;;;1.30;99.90;;;;;;5069485;28;20582;-73
2021/12/01 06:09:36;;;;;;;14.30;8.37;;;1.30;99.90;;;;;;5071155;28;20040;-74
2021/12/01 06:12:02;;;;;;;14.68;8.13;;;1.40;99.90;;;;;;5069518;28;20048;-74
2021/12/01 06:14:28;;;;;;;14.35;8.68;;;1.40;99.90;;;;;;5082713;28;20017;-73
2021/12/01 06:16:54;;;;;;;12.30;7.70;;;1.40;99.90;;;;;;5066211;28;20436;-74
2021/12/01 06:19:20;;;;;;;13.35;8.27;;;1.50;99.90;;;;;;5065623;28;20037;-66
2021/12/01 06:21:46;;;;;;;14.52;8.10;;;1.50;99.90;;;;;;5065564;28;20094;-66
2021/12/01 06:24:12;;;;;;;13.45;7.47;;;1.70;99.90;;;;;;5059187;28;20017;-66
2021/12/01 06:26:37;;;;;;;12.10;7.57;;;1.70;99.90;;;;;;5066357;28;20032;-65
2021/12/01 06:29:04;;;;;;;10.23;6.63;;;1.80;99.90;;;;;;5057398;28;20409;-66
2021/12/01 06:31:30;;;;;;;;;;;1.80;99.90;;;;;;5071367;28;20123;-66
2021/12/01 06:33:58;;;;;;;11.13;7.07;;;1.80;99.90;;;;;;5064414;28;20348;-65
2021/12/01 06:36:24;;;;;;;14.25;7.82;;;1.80;99.90;;;;;;5067388;28;20115;-66
2021/12/01 06:38:50;;;;;;;11.77;7.07;;;1.80;99.90;;;;;;5064967;28;20543;-66
2021/12/01 06:41:16;;;;;;;15.57;8.52;;;1.80;99.90;;;;;;5069319;28;20112;-65
2021/12/01 06:43:42;;;;;;;12.70;7.40;;;1.80;99.90;;;;;;5071244;28;20031;-66
2021/12/01 06:46:07;;;;;;;11.23;7.17;;;1.80;99.90;;;;;;5069622;28;20032;-66
2021/12/01 06:48:33;;;;;;;14.70;8.73;;;1.90;99.90;;;;;;5060425;28;20040;-66
2021/12/01 06:50:59;;;;;;;12.53;7.73;;;1.90;99.90;;;;;;5050338;28;20562;-67
2021/12/01 06:53:26;;;;;;;14.82;8.85;;;1.90;99.90;;;;;;5051295;28;20029;-67
2021/12/01 06:55:53;;;;;;;12.88;8.18;;;1.90;99.90;;;;;;5066083;28;20508;-67
2021/12/01 06:58:19;;;;;;;13.30;8.52;;;1.90;99.90;;;;;;5063434;28;20048;-67
2021/12/01 07:00:44;;;;;;;16.00;8.60;;;2.00;99.90;;;;;;5061924;28;20040;-66
2021/12/01 07:03:10;;;;;;;15.70;9.30;;;2.00;99.90;;;;;;5067795;28;20342;-66
2021/12/01 07:05:37;;;;;;;17.58;9.15;;;2.30;99.90;;;;;;5057561;28;20108;-64
2021/12/01 07:08:04;;;;;;;12.35;8.55;;;2.40;99.90;;;;;;5061773;28;20044;-65
2021/12/01 07:10:30;;;;;;;14.55;8.98;;;2.30;99.90;;;;;;5071261;28;20037;-65
2021/12/01 07:12:56;;;;;;;12.32;7.70;;;2.20;99.90;;;;;;5063678;28;20131;-65
2021/12/01 07:15:22;;;;;;;13.57;8.30;;;2.10;99.90;;;;;;5062587;28;20060;-66
2021/12/01 07:17:47;;;;;;;16.00;8.38;;;2.10;99.90;;;;;;5065733;28;20039;-65
2021/12/01 07:20:14;;;;;;;11.23;7.57;;;2.10;99.90;;;;;;5052057;28;20060;-65
2021/12/01 07:22:41;;;;;;;13.20;8.10;;;2.10;99.90;;;;;;5069203;28;20028;-65
2021/12/01 07:25:08;;;;;;;13.23;8.55;;;2.10;99.90;;;;;;5071537;28;20024;-66
2021/12/01 07:27:34;;;;;;;;;;;2.10;99.90;;;;;;5068117;28;20097;-65
2021/12/01 07:30:01;;;;;;;12.50;7.72;;;2.10;99.90;;;;;;5070749;28;19908;-64
2021/12/01 07:32:27;;;;;;;13.52;7.85;;;2.10;99.90;;;;;;5070236;28;20035;-64
2021/12/01 07:34:52;;;;;;;13.07;7.90;;;2.20;99.90;;;;;;5070882;28;20387;-65
2021/12/01 07:37:18;;;;;;;12.10;7.10;;;2.20;99.90;;;;;;5071432;28;20040;-66
2021/12/01 07:39:45;;;;;;;11.95;6.88;;;2.20;99.90;;;;;;5053030;28;20029;-66
2021/12/01 07:42:13;;;;;;;10.23;6.60;;;2.20;99.90;;;;;;5049949;28;20041;-67
2021/12/01 07:44:39;;;;;;;10.13;6.85;;;2.20;99.90;;;;;;5070992;28;20021;-66
2021/12/01 07:47:05;;;;;;;12.57;7.47;;;2.30;99.90;;;;;;5069313;28;20033;-65
2021/12/01 07:49:31;;;;;;;12.68;7.63;;;2.30;99.90;;;;;;5071296;28;20354;-65
2021/12/01 07:51:58;;;;;;;13.13;7.45;;;2.30;99.90;;;;;;5071602;28;20039;-66
2021/12/01 07:54:23;;;;;;;11.35;6.75;;;2.40;99.90;;;;;;5070331;28;20025;-66
2021/12/01 07:56:49;;;;;;;14.10;8.47;;;2.40;99.90;;;;;;5070836;28;20035;-66
2021/12/01 07:59:15;;;;;;;12.48;7.10;;;2.50;99.90;;;;;;5059658;28;20093;-66
2021/12/01 08:01:43;;;;;;;13.95;7.38;;;2.50;99.90;;;;;;5051208;28;20171;-65
2021/12/01 08:04:10;;;;;;;13.25;7.38;;;2.50;99.90;;;;;;5065080;28;20032;-64
2021/12/01 08:06:35;;;;;;;10.95;7.53;;;2.50;99.90;;;;;;5070712;28;20426;-66
2021/12/01 08:09:03;;;;;;;10.30;6.70;;;2.50;99.90;;;;;;5081878;28;20111;-65
2021/12/01 08:11:28;;;;;;;13.52;7.68;;;2.40;99.90;;;;;;5062226;28;20059;-66
2021/12/01 08:13:55;;;;;;;11.45;6.47;;;2.50;99.90;;;;;;5069984;28;20045;-61
2021/12/01 08:16:20;;;;;;;14.50;7.88;;;2.50;99.90;;;;;;5060365;28;20028;-67
2021/12/01 08:18:55;;;;;;;10.33;6.80;;;3.20;99.90;;;;;;5063750;28;20380;-68
2021/12/01 08:21:23;;;;;;;11.25;7.25;;;3.30;99.90;;;;;;5060671;28;20063;-67
2021/12/01 08:23:53;;;;;;;10.48;6.82;;;3.20;99.90;;;;;;5067693;28;20048;-67
2021/12/01 08:26:20;;;;;;;14.98;9.45;;;3.00;99.90;;;;;;5065880;28;20025;-67
2021/12/01 08:28:46;;;;;;;15.18;8.27;;;2.80;99.90;;;;;;5057710;28;20108;-68
2021/12/01 08:31:13;;;;;;;15.88;8.82;;;2.70;99.90;;;;;;5056771;28;20112;-67
2021/12/01 08:33:39;;;;;;;;;;;2.70;99.90;;;;;;5063375;28;20074;-66
2021/12/01 08:36:05;;;;;;;13.02;8.77;;;2.60;99.90;;;;;;5066731;28;19912;-66
2021/12/01 08:38:30;;;;;;;13.43;8.00;;;2.60;99.90;;;;;;5066589;28;20043;-67
2021/12/01 08:40:56;;;;;;;18.20;9.47;;;2.60;99.90;;;;;;5060134;28;20078;-68
2021/12/01 08:43:22;;;;;;;16.70;9.23;;;2.70;99.90;;;;;;5063243;28;20551;-66
2021/12/01 08:45:48;;;;;;;13.97;8.57;;;2.80;99.90;;;;;;5084584;28;20020;-67
2021/12/01 08:48:13;;;;;;;14.20;8.33;;;2.80;99.90;;;;;;5064733;28;20445;-66
2021/12/01 08:50:40;;;;;;;14.23;8.20;;;2.80;99.90;;;;;;5061756;28;20458;-67
2021/12/01 08:53:05;;;;;;;12.80;7.88;;;2.70;99.90;;;;;;5054914;28;20033;-68
2021/12/01 08:55:31;;;;;;;13.40;8.33;;;2.70;99.90;;;;;;5058287;28;20086;-67
2021/12/01 08:57:57;;;;;;;108.03;50.37;;;2.70;99.90;;;;;;5066237;28;20120;-66
2021/12/01 09:00:23;;;;;;;13.65;9.05;;;2.70;99.90;;;;;;5072468;28;20021;-67
2021/12/01 09:02:49;;;;;;;21.77;13.17;;;2.70;99.90;;;;;;5061641;28;20151;-65
2021/12/01 09:05:15;;;;;;;12.27;8.63;;;2.80;99.90;;;;;;5060764;28;20016;-66
2021/12/01 09:07:41;;;;;;;15.32;9.00;;;2.80;99.90;;;;;;5066094;28;20362;-66
2021/12/01 09:10:07;;;;;;;15.43;8.10;;;2.80;99.90;;;;;;5057320;28;20617;-68
2021/12/01 09:12:34;;;;;;;12.85;8.30;;;2.90;99.90;;;;;;5067668;28;20127;-66
2021/12/01 09:14:59;;;;;;;9.77;6.88;;;3.00;99.90;;;;;;5076060;28;20044;-66
2021/12/01 09:17:26;;;;;;;12.30;7.20;;;2.90;99.90;;;;;;5067589;28;20040;-67
2021/12/01 09:19:52;;;;;;;13.93;7.82;;;2.90;99.90;;;;;;5067347;28;20024;-71
2021/12/01 09:22:19;;;;;;;10.98;7.00;;;2.80;99.90;;;;;;5068515;28;20056;-68
2021/12/01 09:24:50;;;;;;;12.27;7.50;;;2.80;99.90;;;;;;5063570;28;20025;-68
2021/12/01 09:27:16;;;;;;;12.48;7.78;;;2.80;99.90;;;;;;5069759;28;20329;-68
2021/12/01 09:29:42;;;;;;;11.82;7.72;;;2.70;99.90;;;;;;5070850;28;20035;-68
2021/12/01 09:32:10;;;;;;;14.97;7.40;;;2.70;99.90;;;;;;5060440;28;20036;-68
2021/12/01 09:34:35;;;;;;;11.95;7.00;;;2.70;99.90;;;;;;5071145;28;20036;-67
2021/12/01 09:37:01;;;;;;;15.50;8.60;;;2.70;99.90;;;;;;5055769;28;20037;-68
2021/12/01 09:39:27;;;;;;;12.37;7.53;;;2.60;99.90;;;;;;5061995;28;20051;-67
2021/12/01 09:41:55;;;;;;;13.03;7.93;;;2.60;99.90;;;;;;5060069;28;20036;-67
2021/12/01 09:44:21;;;;;;;16.38;8.70;;;2.60;99.90;;;;;;5067956;28;20463;-68
2021/12/01 09:46:47;;;;;;;14.80;9.77;;;2.60;99.90;;;;;;5071436;28;20033;-67
2021/12/01 09:49:12;;;;;;;15.07;9.93;;;2.70;99.90;;;;;;5065040;28;20036;-66
2021/12/01 09:51:38;;;;;;;15.33;7.43;;;2.80;99.90;;;;;;5068991;28;20043;-67
2021/12/01 09:54:05;;;;;;;14.10;8.20;;;2.80;99.90;;;;;;5062788;28;20035;-67
2021/12/01 09:56:31;;;;;;;12.55;7.20;;;2.70;99.90;;;;;;5062507;28;20044;-66
2021/12/01 09:58:58;;;;;;;12.02;7.82;;;2.70;99.90;;;;;;5072116;28;20044;-68
2021/12/01 10:01:25;;;;;;;;;;;2.70;99.90;;;;;;5071879;28;20036;-68
2021/12/01 10:03:51;;;;;;;12.30;7.30;;;2.60;99.90;;;;;;5067015;28;19919;-67
2021/12/01 10:06:26;;;;;;;10.32;6.78;;;2.80;99.90;;;;;;5061008;28;20036;-66
2021/12/01 10:09:01;;;;;;;12.00;7.07;;;2.80;99.90;;;;;;5066133;28;20052;-65
2021/12/01 10:11:33;;;;;;;13.65;8.60;;;2.80;99.90;;;;;;5071228;28;20063;-67
2021/12/01 10:14:20;;;;;;;12.70;6.93;;;3.00;99.90;;;;;;5062833;28;20037;-65
2021/12/01 10:16:50;;;;;;;12.65;7.55;;;3.30;99.90;;;;;;5068099;28;20032;-67
2021/12/01 10:19:16;;;;;;;9.68;6.35;;;3.20;99.90;;;;;;5066279;28;20017;-66
2021/12/01 10:21:48;;;;;;;11.40;7.30;;;3.10;99.90;;;;;;5065214;28;20029;-67
2021/12/01 10:24:19;;;;;;;10.40;6.70;;;3.00;99.90;;;;;;5058539;28;20036;-66
2021/12/01 10:26:56;;;;;;;14.63;8.77;;;2.90;99.90;;;;;;5067261;28;20039;-66
2021/12/01 10:29:25;;;;;;;12.07;7.25;;;2.90;99.90;;;;;;5065494;28;20021;-62
2021/12/01 10:31:58;;;;;;;9.52;5.57;;;2.90;99.90;;;;;;5068178;28;20322;-64
2021/12/01 10:34:23;;;;;;;10.88;6.85;;;3.90;99.90;;;;;;5056434;28;20452;-65
2021/12/01 10:37:05;;;;;;;8.60;5.77;;;5.20;99.90;;;;;;5063799;28;20071;-69
2021/12/01 10:39:30;;;;;;;9.80;6.57;;;5.50;99.90;;;;;;5066534;28;20012;-70
2021/12/01 10:42:03;;;;;;;10.97;6.20;;;5.10;99.90;;;;;;5069781;28;20055;-68
2021/12/01 10:44:29;;;;;;;10.63;6.88;;;4.50;99.90;;;;;;5069106;28;20714;-63
2021/12/01 10:46:55;;;;;;;8.20;5.60;;;4.00;99.90;;;;;;5061422;28;20061;-66
2021/12/01 10:49:44;;;;;;;14.77;7.30;;;3.50;99.90;;;;;;5058549;28;20033;-68
2021/12/01 10:52:31;;;;;;;12.80;7.22;;;3.20;99.90;;;;;;5069523;28;20472;-67
2021/12/01 10:55:13;;;;;;;11.23;7.30;;;3.10;99.90;;;;;;5061818;28;20322;-68
2021/12/01 10:57:49;;;;;;;11.77;7.07;;;3.00;99.90;;;;;;5063356;28;21016;-67
2021/12/01 11:00:18;;;;;;;10.32;6.95;;;3.00;99.90;;;;;;5059015;28;20029;-69
2021/12/01 11:02:44;;;;;;;10.18;6.60;;;2.90;99.90;;;;;;5062702;28;20044;-67
2021/12/01 11:05:24;;;;;;;11.35;7.28;;;2.90;99.90;;;;;;5063560;28;20024;-67
2021/12/01 11:07:49;;;;;;;11.65;7.00;;;2.80;99.90;;;;;;5060200;28;20090;-68
2021/12/01 11:10:21;;;;;;;11.50;7.37;;;2.80;99.90;;;;;;5064061;28;20467;-68
2021/12/01 11:12:59;;;;;;;10.65;6.80;;;2.80;99.90;;;;;;5066663;28;20044;-67
2021/12/01 11:15:31;;;;;;;12.63;8.57;;;2.90;99.90;;;;;;5060598;28;20116;-69
2021/12/01 11:17:58;;;;;;;14.05;8.00;;;2.80;99.90;;;;;;5063430;28;20037;-68
2021/12/01 11:20:36;;;;;;;13.25;7.43;;;2.80;99.90;;;;;;5065560;28;20029;-68
2021/12/01 11:23:21;;;;;;;15.02;7.22;;;2.70;99.90;;;;;;5064119;28;20492;-69
2021/12/01 11:25:52;;;;;;;11.48;7.25;;;2.70;99.90;;;;;;5060897;28;20032;-70
2021/12/01 11:28:20;;;;;;;12.30;7.28;;;2.70;99.90;;;;;;5064550;28;20028;-70
2021/12/01 11:30:50;;;;;;;12.60;7.28;;;2.80;99.90;;;;;;5060683;28;20037;-68
2021/12/01 11:33:18;;;;;;;13.07;7.32;;;2.80;99.90;;;;;;5063338;28;20025;-71
2021/12/01 11:35:47;;;;;;;10.90;6.82;;;2.80;99.90;;;;;;5058015;28;20105;-69
2021/12/01 11:38:13;;;;;;;12.52;7.18;;;2.70;99.90;;;;;;5061788;28;20044;-69
2021/12/01 11:40:39;;;;;;;13.85;8.15;;;2.70;99.90;;;;;;5061053;28;20021;-69
2021/12/01 11:43:09;;;;;;;10.70;7.15;;;2.70;99.90;;;;;;5061329;28;20413;-69
2021/12/01 11:45:39;;;;;;;14.05;7.50;;;2.70;99.90;;;;;;5061601;28;20380;-70
2021/12/01 11:48:11;;;;;;;11.13;7.05;;;2.70;99.90;;;;;;5069620;28;20044;-70
2021/12/01 11:50:49;;;;;;;12.50;6.95;;;2.80;99.90;;;;;;5066386;28;20523;-70
2021/12/01 11:53:34;;;;;;;11.20;7.50;;;2.80;99.90;;;;;;5079853;28;20033;-70
2021/12/01 11:56:01;;;;;;;13.13;6.82;;;2.90;99.90;;;;;;5064495;28;20023;-70
2021/12/01 11:58:46;;;;;;;12.05;7.75;;;3.00;99.90;;;;;;5066646;28;20051;-71
2021/12/01 12:01:20;;;;;;;11.63;7.07;;;3.00;99.90;;;;;;5065471;28;20025;-70
2021/12/01 12:04:01;;;;;;;12.07;7.20;;;3.00;99.90;;;;;;5051016;28;20052;-69
2021/12/01 12:06:35;;;;;;;13.77;8.32;;;3.00;99.90;;;;;;5064720;28;20039;-71
2021/12/01 12:09:06;;;;;;;14.70;8.20;;;3.00;99.90;;;;;;5063702;28;20021;-69
2021/12/01 12:11:41;;;;;;;299.10;148.65;;;2.90;99.90;;;;;;5055821;28;20053;-69
2021/12/01 12:14:11;;;;;;;21.98;11.48;;;2.90;99.90;;;;;;5062663;28;20463;-69
2021/12/01 12:16:40;;;;;;;13.75;8.35;;;3.00;99.90;;;;;;5057864;28;20045;-69
2021/12/01 12:19:05;;;;;;;12.60;7.10;;;3.00;99.90;;;;;;5063574;28;20384;-69
2021/12/01 12:21:46;;;;;;;14.50;8.87;;;2.90;99.90;;;;;;5055055;28;20037;-67
2021/12/01 12:24:22;;;;;;;11.45;7.07;;;2.90;99.90;;;;;;5060023;28;20311;-66
2021/12/01 12:26:53;;;;;;;12.85;7.22;;;2.90;99.90;;;;;;5064505;28;20029;-65
2021/12/01 12:29:25;;;;;;;11.77;6.13;;;2.90;99.90;;;;;;5065771;28;20094;-66
2021/12/01 12:31:53;;;;;;;12.23;6.75;;;2.80;99.90;;;;;;5059330;28;20111;-67
2021/12/01 12:34:24;;;;;;;10.35;6.18;;;2.90;99.90;;;;;;5064086;28;20025;-67
2021/12/01 12:36:58;;;;;;;11.45;6.35;;;2.80;99.90;;;;;;5064816;28;20081;-68
2021/12/01 12:39:32;;;;;;;9.60;6.53;;;2.70;99.90;;;;;;5065679;28;20060;-68
2021/12/01 12:42:00;;;;;;;11.77;6.95;;;2.70;99.90;;;;;;5068587;28;20052;-67
2021/12/01 12:44:33;;;;;;;14.02;6.63;;;2.80;99.90;;;;;;5072676;28;20475;-66
2021/12/01 12:47:06;;;;;;;13.98;6.35;;;2.80;99.90;;;;;;5067121;28;20523;-67
2021/12/01 12:49:53;;;;;;;11.23;6.22;;;2.80;99.90;;;;;;5057270;28;20087;-69
2021/12/01 12:52:25;;;;;;;9.70;5.40;;;2.90;99.90;;;;;;5065514;28;20028;-67
2021/12/01 12:54:55;;;;;;;9.25;5.63;;;2.80;99.90;;;;;;5069838;28;20033;-67
2021/12/01 12:57:22;;;;;;;146.43;73.05;;;2.80;99.90;;;;;;5067317;28;20655;-67
2021/12/01 12:59:48;;;;;;;12.88;7.82;;;2.70;99.90;;;;;;5068458;28;20555;-68